Terminal Aerodrome Forecast
Issued by NWS Jackson, MS

Home | Current Version | Previous Version | Text Only | Print | Product List | Glossary On
Versions: 1 2 3 4 5 6 7 8 9 10 11 12 13 14 15 16 17 18 19
000
FTUS44 KJAN 260725 AAA
TAFJAN
TAF AMD
KJAN 260725Z 2607/2706 20015G35KT 1SM +TSRA BKN015 OVC030CB
     FM260900 27006KT 6SM -SHRA BR SCT010 BKN030
     FM261230 16010KT 5SM BR VCSH BKN015 OVC025
     FM261700 18008G17KT P6SM VCTS SCT020 BKN030CB=

USA.gov is the U.S. government's official web portal to all federal, state and local government web resources and services.